LTBU/TEQ METAR and TAF weather

Enter ICAO airport designator
Station Type Date Time Source
LTBU METAR 2019/10/23 20:20 UTC NOAA

LTBU 232020Z 01007KT CAVOK 12/11 Q1021


Station Type Date Time Source
LTBU Decoded METAR 2019/10/23 20:20 UTC NOAA

Corlu, Turkey (LTBU) 41-08N 027-55E
Oct 23, 2019 - 04:20 PM EDT / 2019.10.23 2020 UTC
Wind: from the N (010 degrees) at 8 MPH (7 KT):0
Visibility: greater than 7 mile(s):0
Temperature: 53 F (12 C)
Dew Point: 51 F (11 C)
Relative Humidity: 93%
Pressure (altimeter): 30.15 in. Hg (1021 hPa)
ob: LTBU 232020Z 01007KT CAVOK 12/11 Q1021
cycle: 20

Station Type Date Time Source
LTBU TAF 2019/10/23 18:03 UTC NOAA

TAF LTBU 231640Z 2318/2418 02009KT CAVOK
BECMG 2318/2321 SCT020 PROB30
TEMPO 2400/2404 4000 BR BKN014

Example: see airport list